createdAt,value
2018-03-04T00:00:17.232Z,86.04
2018-03-04T00:01:17.237Z,86.53
2018-03-04T00:02:17.229Z,86.1
2018-03-04T00:03:17.247Z,86.23
2018-03-04T00:04:17.220Z,85.89
2018-03-04T00:05:17.231Z,86.13
2018-03-04T00:06:17.255Z,86
2018-03-04T00:07:17.239Z,85.98
2018-03-04T00:08:17.260Z,86.26
2018-03-04T00:09:17.255Z,86
2018-03-04T00:10:17.266Z,86.18
2018-03-04T00:11:17.269Z,86.17
2018-03-04T00:12:17.254Z,86.12
2018-03-04T00:13:17.250Z,85.96
2018-03-04T00:14:17.270Z,86.76
2018-03-04T00:15:17.254Z,86.61
2018-03-04T00:16:17.257Z,86.19
2018-03-04T00:17:17.287Z,86.23
2018-03-04T00:18:17.280Z,85.45
2018-03-04T00:19:17.267Z,85.85
2018-03-04T00:20:17.274Z,85.82
2018-03-04T00:21:17.269Z,86.25
2018-03-04T00:22:17.306Z,86.09
2018-03-04T00:23:17.279Z,85.75
2018-03-04T00:24:17.299Z,86.02
2018-03-04T00:25:17.277Z,86.06
2018-03-04T00:26:17.281Z,86.34
2018-03-04T00:27:17.308Z,86.06
2018-03-04T00:28:17.288Z,86.21
2018-03-04T00:29:17.301Z,85.96
2018-03-04T00:31:23.515Z,86.14
2018-03-04T00:32:17.306Z,86.5
2018-03-04T00:33:17.318Z,86.04
2018-03-04T00:34:17.286Z,86.22
2018-03-04T00:35:17.294Z,86.34
2018-03-04T00:36:17.321Z,86.24
2018-03-04T00:37:17.305Z,86.7
2018-03-04T00:38:17.352Z,86.42
2018-03-04T00:39:17.334Z,86.19
2018-03-04T00:41:23.572Z,86.41
2018-03-04T00:42:17.334Z,86.26
2018-03-04T00:43:17.314Z,86.26
2018-03-04T00:44:17.322Z,86.53
2018-03-04T00:45:17.327Z,86.45
2018-03-04T00:46:17.348Z,86.43
2018-03-04T00:47:17.328Z,87.35
2018-03-04T00:48:17.337Z,86.84
2018-03-04T00:49:17.354Z,86.88
2018-03-04T00:50:17.354Z,86.6
2018-03-04T00:51:17.347Z,87.01
2018-03-04T00:52:17.658Z,87.24
2018-03-04T00:53:17.353Z,86.78
2018-03-04T00:54:17.363Z,87.12
2018-03-04T00:55:17.356Z,87.06
2018-03-04T00:56:17.360Z,87.09
2018-03-04T00:57:17.382Z,87.4
2018-03-04T00:58:17.375Z,86.96
2018-03-04T00:59:17.364Z,87.12
2018-03-04T01:00:17.363Z,86.96
2018-03-04T01:01:17.368Z,86.95
2018-03-04T01:02:17.398Z,87.17
2018-03-04T01:03:17.376Z,87
2018-03-04T01:04:17.376Z,87.12
2018-03-04T01:05:17.389Z,86.93
2018-03-04T01:06:17.386Z,87.2
2018-03-04T01:07:17.391Z,86.95
2018-03-04T01:08:17.401Z,86.8
2018-03-04T01:09:17.382Z,87
2018-03-04T01:10:17.388Z,87.24
2018-03-04T01:11:17.405Z,87.05
2018-03-04T01:12:17.402Z,86.99
2018-03-04T01:13:17.678Z,86.84
2018-03-04T01:14:17.413Z,87.11
2018-03-04T01:15:17.420Z,87.01
2018-03-04T01:16:17.424Z,87.36
2018-03-04T01:17:17.417Z,87.47
2018-03-04T01:18:17.441Z,87.32
2018-03-04T01:20:23.670Z,87.62
2018-03-04T01:21:17.428Z,87.57
2018-03-04T01:22:17.436Z,87.43
2018-03-04T01:23:17.444Z,87.59
2018-03-04T01:24:17.434Z,87.94
2018-03-04T01:25:17.439Z,87.61
2018-03-04T01:26:17.448Z,87.31
2018-03-04T01:27:17.466Z,87.83
2018-03-04T01:28:17.438Z,87.78
2018-03-04T01:29:17.464Z,87.67
2018-03-04T01:30:17.475Z,87.75
2018-03-04T01:31:17.459Z,87.78
2018-03-04T01:32:17.459Z,87.75
2018-03-04T01:33:17.459Z,87.36
2018-03-04T01:34:17.485Z,87.91
2018-03-04T01:35:17.460Z,88.03
2018-03-04T01:36:17.453Z,87.86
2018-03-04T01:37:17.467Z,87.67
2018-03-04T01:38:17.459Z,87.64
2018-03-04T01:39:17.505Z,87.46
2018-03-04T01:40:17.472Z,87.97
2018-03-04T01:41:17.477Z,87.86
2018-03-04T01:42:17.470Z,87.44
2018-03-04T01:43:17.482Z,87.45
2018-03-04T01:44:17.503Z,87.73
2018-03-04T01:45:17.499Z,87.81
2018-03-04T01:46:17.508Z,87.46
2018-03-04T01:47:17.496Z,87.49
2018-03-04T01:48:17.508Z,87.56
2018-03-04T01:49:17.509Z,87.73
2018-03-04T01:50:17.517Z,87.5
2018-03-04T01:51:17.534Z,87.32
2018-03-04T01:52:17.532Z,87.32
2018-03-04T01:53:17.520Z,87.37
2018-03-04T01:54:17.525Z,87.49
2018-03-04T01:55:17.582Z,88.01
2018-03-04T01:56:17.541Z,87.39
2018-03-04T01:57:17.846Z,87.43
2018-03-04T01:58:17.553Z,87.35
2018-03-04T01:59:17.684Z,87.07
2018-03-04T02:00:17.542Z,87.32
2018-03-04T02:01:17.546Z,87.1
2018-03-04T02:02:17.584Z,87.12
2018-03-04T02:03:17.558Z,87.14
2018-03-04T02:04:17.597Z,87.03
2018-03-04T02:05:17.554Z,86.5
2018-03-04T02:06:17.559Z,86.94
2018-03-04T02:07:17.580Z,87.39
2018-03-04T02:08:17.562Z,87.45
2018-03-04T02:09:17.564Z,87.17
2018-03-04T02:10:17.572Z,87.67
2018-03-04T02:11:17.578Z,87.53
2018-03-04T02:12:17.572Z,87.5
2018-03-04T02:13:17.595Z,87.46
2018-03-04T02:14:17.583Z,87.09
2018-03-04T02:15:17.591Z,87.16
2018-03-04T02:16:17.613Z,86.63
2018-03-04T02:18:25.816Z,87.3
2018-03-04T02:19:17.619Z,87.38
2018-03-04T02:20:17.585Z,87.1
2018-03-04T02:21:17.604Z,86.79
2018-03-04T02:22:17.588Z,87.23
2018-03-04T02:23:17.605Z,87.33
2018-03-04T02:24:17.598Z,88.13
2018-03-04T02:25:17.631Z,87.22
2018-03-04T02:26:17.585Z,86.98
2018-03-04T02:27:17.585Z,86.83
2018-03-04T02:28:17.584Z,87.05
2018-03-04T02:29:17.636Z,87.23
2018-03-04T02:30:17.615Z,86.87
2018-03-04T02:31:17.600Z,87.44
2018-03-04T02:32:17.615Z,88.44
2018-03-04T02:33:17.611Z,87.86
2018-03-04T02:34:17.609Z,87.67
2018-03-04T02:35:17.641Z,87.69
2018-03-04T02:36:17.660Z,87.92
2018-03-04T02:37:17.623Z,87.59
2018-03-04T02:38:17.629Z,87.93
2018-03-04T02:39:17.630Z,88.11
2018-03-04T02:40:17.900Z,87.87
2018-03-04T02:41:17.641Z,87.91
2018-03-04T02:42:17.634Z,88
2018-03-04T02:43:17.653Z,88.01
2018-03-04T02:44:17.631Z,88.05
2018-03-04T02:45:17.669Z,87.95
2018-03-04T02:46:17.689Z,87.97
2018-03-04T02:47:17.632Z,87.68
2018-03-04T02:48:17.641Z,87.74
2018-03-04T02:49:17.664Z,87.86
2018-03-04T02:50:17.646Z,88.36
2018-03-04T02:51:17.684Z,87.99
2018-03-04T02:52:17.701Z,88.54
2018-03-04T02:53:17.664Z,88.71
2018-03-04T02:54:17.655Z,88.42
2018-03-04T02:55:17.673Z,88.67
2018-03-04T02:56:17.678Z,88.65
2018-03-04T02:57:17.657Z,88.37
2018-03-04T02:58:17.682Z,88.63
2018-03-04T02:59:17.655Z,88.74
2018-03-04T03:00:17.678Z,88.98
2018-03-04T03:01:17.694Z,89
2018-03-04T03:02:17.678Z,88.77
2018-03-04T03:03:17.715Z,88.51
2018-03-04T03:04:17.693Z,88.98
2018-03-04T03:05:17.686Z,88.92
2018-03-04T03:07:23.982Z,89.03
2018-03-04T03:08:17.715Z,89.23
2018-03-04T03:09:17.721Z,89.04
2018-03-04T03:10:17.712Z,88.69
2018-03-04T03:11:17.710Z,88.42
2018-03-04T03:12:17.731Z,88.87
2018-03-04T03:13:17.746Z,89
2018-03-04T03:14:17.738Z,89.11
2018-03-04T03:15:17.728Z,88.69
2018-03-04T03:17:23.898Z,88.8
2018-03-04T03:18:17.728Z,88.92
2018-03-04T03:19:17.717Z,88.56
2018-03-04T03:20:17.742Z,88.93
2018-03-04T03:21:17.800Z,88.96
2018-03-04T03:22:17.741Z,88.67
2018-03-04T03:23:17.746Z,88.62
2018-03-04T03:24:17.751Z,88.82
2018-03-04T03:25:17.758Z,88.71
2018-03-04T03:26:17.786Z,89.03
2018-03-04T03:27:17.776Z,89.05
2018-03-04T03:28:17.764Z,88.71
2018-03-04T03:29:17.769Z,88.71
2018-03-04T03:30:17.783Z,88.53
2018-03-04T03:31:17.803Z,88.36
2018-03-04T03:32:17.773Z,87.78
2018-03-04T03:33:17.799Z,88.33
2018-03-04T03:34:17.786Z,88.23
2018-03-04T03:36:38.588Z,89.01
2018-03-04T03:37:17.784Z,88.73
2018-03-04T03:38:17.793Z,88.35
2018-03-04T03:39:17.786Z,88.56
2018-03-04T03:40:17.794Z,88.51
2018-03-04T03:41:17.796Z,88.98
2018-03-04T03:42:17.798Z,88.93
2018-03-04T03:43:17.812Z,88.74
2018-03-04T03:44:17.804Z,88.89
2018-03-04T03:45:17.817Z,88.4
2018-03-04T03:46:17.835Z,88.67
2018-03-04T03:47:18.399Z,88.58
2018-03-04T03:48:17.845Z,88.91
2018-03-04T03:49:17.832Z,89.06
2018-03-04T03:50:17.836Z,88.93
2018-03-04T03:51:17.836Z,88.82
2018-03-04T03:52:17.824Z,88.04
2018-03-04T03:53:17.842Z,88.61
2018-03-04T03:54:17.837Z,88.51
2018-03-04T03:55:17.875Z,88.26
2018-03-04T03:56:17.857Z,88.88
2018-03-04T03:57:17.878Z,88.57
2018-03-04T03:58:17.860Z,88.83
2018-03-04T03:59:17.869Z,88.88
2018-03-04T04:00:17.888Z,89.06
2018-03-04T04:01:17.851Z,88.81
2018-03-04T04:02:18.974Z,88.55
2018-03-04T04:03:17.966Z,88.43
2018-03-04T04:04:19.775Z,88.1
2018-03-04T04:05:20.858Z,88.24
2018-03-04T04:06:23.531Z,88.6
2018-03-04T04:07:19.501Z,88.67
2018-03-04T04:08:20.995Z,89.18
2018-03-04T04:09:22.841Z,89.09
2018-03-04T04:10:20.061Z,88.98
2018-03-04T04:11:19.362Z,89.03
2018-03-04T04:12:24.686Z,89.02
2018-03-04T04:13:17.931Z,88.88
2018-03-04T04:14:17.918Z,89.18
2018-03-04T04:15:18.207Z,88.53
2018-03-04T04:16:17.941Z,88.59
2018-03-04T04:17:17.930Z,88.33
2018-03-04T04:18:17.948Z,88.72
2018-03-04T04:19:17.921Z,88.59
2018-03-04T04:20:17.940Z,89.05
2018-03-04T04:21:17.930Z,88.68
2018-03-04T04:22:17.953Z,88.76
2018-03-04T04:23:17.955Z,88.83
2018-03-04T04:24:17.978Z,88.78
2018-03-04T04:25:17.962Z,88.33
2018-03-04T04:26:17.957Z,88.26
2018-03-04T04:27:17.960Z,88.27
2018-03-04T04:28:17.982Z,88.03
2018-03-04T04:29:17.967Z,88.46
2018-03-04T04:30:17.956Z,88.52
2018-03-04T04:31:17.964Z,88.29
2018-03-04T04:32:17.956Z,88.62
2018-03-04T04:33:17.964Z,88.27
2018-03-04T04:34:17.992Z,88.37
2018-03-04T04:35:17.983Z,88.57
2018-03-04T04:36:17.997Z,88.51
2018-03-04T04:37:17.979Z,88.47
2018-03-04T04:38:18.026Z,88.69
2018-03-04T04:39:18.043Z,88.71
2018-03-04T04:41:24.519Z,89.11
2018-03-04T04:42:17.993Z,89.03
2018-03-04T04:43:17.999Z,88.98
2018-03-04T04:44:18.011Z,88.93
2018-03-04T04:45:18.130Z,89.05
2018-03-04T04:46:18.036Z,89.16
2018-03-04T04:47:18.042Z,89.39
2018-03-04T04:48:18.013Z,89.58
2018-03-04T04:49:18.025Z,89.45
2018-03-04T04:51:24.303Z,89.48
2018-03-04T04:52:18.076Z,89.47
2018-03-04T04:53:18.053Z,89.22
2018-03-04T04:54:18.070Z,89.06
2018-03-04T04:55:18.061Z,88.97
2018-03-04T04:56:18.084Z,89.23
2018-03-04T04:57:18.376Z,89.3
2018-03-04T04:58:18.200Z,89.1
2018-03-04T04:59:18.081Z,89.53
2018-03-04T05:00:18.086Z,89.43
2018-03-04T05:01:18.083Z,89.39
2018-03-04T05:02:18.124Z,89.58
2018-03-04T05:03:18.088Z,89.47
2018-03-04T05:04:18.160Z,90.03
2018-03-04T05:05:18.100Z,89.78
2018-03-04T05:06:18.092Z,89.6
2018-03-04T05:07:18.132Z,89.87
2018-03-04T05:08:18.120Z,90.58
2018-03-04T05:09:18.113Z,90.31
2018-03-04T05:10:18.108Z,89.8
2018-03-04T05:11:18.155Z,90.13
2018-03-04T05:12:18.143Z,90.03
2018-03-04T05:13:18.129Z,89.66
2018-03-04T05:14:18.180Z,89.49
2018-03-04T05:15:18.119Z,89.04
2018-03-04T05:16:18.122Z,89.42
2018-03-04T05:17:18.124Z,89.87
2018-03-04T05:18:18.188Z,89.72
2018-03-04T05:19:18.145Z,89.58
2018-03-04T05:20:18.122Z,89.41
2018-03-04T05:21:18.180Z,89.62
2018-03-04T05:22:18.145Z,89.65
2018-03-04T05:23:18.143Z,89.88
2018-03-04T05:24:18.148Z,89.9
2018-03-04T05:25:18.158Z,89.38
2018-03-04T05:26:18.158Z,89.74
2018-03-04T05:27:18.150Z,89.38
2018-03-04T05:28:18.216Z,89.93
2018-03-04T05:29:18.149Z,89.96
2018-03-04T05:30:18.167Z,89.74
2018-03-04T05:31:18.168Z,89.82
2018-03-04T05:32:18.162Z,89.83
2018-03-04T05:33:18.165Z,89.69
2018-03-04T05:34:18.159Z,89.56
2018-03-04T05:35:18.168Z,89.6
2018-03-04T05:36:18.184Z,89.38
2018-03-04T05:37:18.178Z,89.56
2018-03-04T05:38:18.194Z,89.6
2018-03-04T05:39:18.180Z,89.04
2018-03-04T05:40:18.185Z,89.35
2018-03-04T05:41:18.191Z,89.39
2018-03-04T05:42:18.192Z,89.68
2018-03-04T05:43:18.240Z,89.22
2018-03-04T05:44:18.201Z,89.59
2018-03-04T05:45:18.203Z,89.14
2018-03-04T05:46:18.216Z,89.06
2018-03-04T05:47:18.217Z,89.34
2018-03-04T05:48:18.220Z,89.54
2018-03-04T05:49:18.221Z,89.47
2018-03-04T05:50:18.226Z,89.67
2018-03-04T05:51:18.283Z,89.47
2018-03-04T05:52:18.231Z,89.26
2018-03-04T05:53:18.250Z,89.45
2018-03-04T05:54:18.245Z,89.14
2018-03-04T05:55:18.243Z,89.45
2018-03-04T05:56:18.262Z,89.67
2018-03-04T05:57:18.254Z,89.03
2018-03-04T06:00:18.344Z,89.18
2018-03-04T06:01:18.246Z,88.97
2018-03-04T06:02:18.289Z,89.74
2018-03-04T06:03:18.345Z,89.49
2018-03-04T06:04:18.261Z,89.18
2018-03-04T06:05:18.286Z,89.67
2018-03-04T06:06:18.263Z,89.65
2018-03-04T06:07:18.281Z,89.63
2018-03-04T06:08:18.365Z,89.18
2018-03-04T06:09:18.329Z,88.98
2018-03-04T06:10:18.321Z,88.62
2018-03-04T06:11:18.274Z,89
2018-03-04T06:12:18.493Z,89.04
2018-03-04T06:13:18.288Z,89.56
2018-03-04T06:14:18.291Z,89.5
2018-03-04T06:15:18.295Z,88.76
2018-03-04T06:16:18.296Z,89.58
2018-03-04T06:17:18.297Z,89.41
2018-03-04T06:18:18.321Z,90.26
2018-03-04T06:19:19.211Z,89.43
2018-03-04T06:20:18.340Z,90.22
2018-03-04T06:21:18.323Z,90.17
2018-03-04T06:22:18.367Z,90.01
2018-03-04T06:23:18.336Z,90.06
2018-03-04T06:24:18.373Z,90.8
2018-03-04T06:25:18.376Z,90.95
2018-03-04T06:26:18.430Z,90.77
2018-03-04T06:27:18.386Z,90.65
2018-03-04T06:28:18.402Z,90.88
2018-03-04T06:29:18.331Z,90.44
2018-03-04T06:30:18.327Z,90.36
2018-03-04T06:31:18.346Z,89.92
2018-03-04T06:32:18.359Z,90.53
2018-03-04T06:33:18.331Z,90.5
2018-03-04T06:34:18.347Z,90.36
2018-03-04T06:35:18.346Z,90.19
2018-03-04T06:36:18.988Z,90.07
2018-03-04T06:37:18.340Z,90.67
2018-03-04T06:38:18.354Z,90.82
2018-03-04T06:39:18.437Z,90.72
2018-03-04T06:40:18.374Z,90.82
2018-03-04T06:41:18.420Z,90.85
2018-03-04T06:42:19.005Z,90.79
2018-03-04T06:43:18.680Z,91.11
2018-03-04T06:44:18.391Z,91.25
2018-03-04T06:45:18.379Z,91.23
2018-03-04T06:46:19.023Z,91.2
2018-03-04T06:47:18.988Z,91.08
2018-03-04T06:48:18.401Z,91.48
2018-03-04T06:49:18.403Z,91.24
2018-03-04T06:50:18.670Z,91.04
2018-03-04T06:51:18.467Z,91.05
2018-03-04T06:52:18.420Z,90.79
2018-03-04T06:53:18.416Z,90.88
2018-03-04T06:54:18.459Z,90.77
2018-03-04T06:55:18.480Z,90.47
2018-03-04T06:56:18.447Z,90.75
2018-03-04T06:57:19.095Z,90.62
2018-03-04T06:58:18.451Z,90.8
2018-03-04T06:59:18.663Z,90.62
2018-03-04T07:00:18.445Z,90.13
2018-03-04T07:01:18.441Z,90.05
2018-03-04T07:02:18.447Z,90.15
2018-03-04T07:03:18.441Z,89.86
2018-03-04T07:04:18.494Z,90.87
2018-03-04T07:05:18.445Z,90.67
2018-03-04T07:06:18.445Z,90.2
2018-03-04T07:07:18.491Z,90.07
2018-03-04T07:08:18.450Z,89.94
2018-03-04T07:09:18.492Z,89.83
2018-03-04T07:10:18.501Z,89.44
2018-03-04T07:11:18.468Z,89.5
2018-03-04T07:12:18.481Z,89.61
2018-03-04T07:13:18.482Z,89.78
2018-03-04T07:14:18.747Z,89.84
2018-03-04T07:15:18.651Z,89.47
2018-03-04T07:16:18.504Z,89.49
2018-03-04T07:17:18.488Z,88.87
2018-03-04T07:18:18.498Z,89.75
2018-03-04T07:19:18.509Z,89.67
2018-03-04T07:20:18.512Z,89.56
2018-03-04T07:21:18.524Z,89.79
2018-03-04T07:22:18.519Z,89.24
2018-03-04T07:23:18.562Z,89.92
2018-03-04T07:24:18.553Z,89.38
2018-03-04T07:25:18.550Z,90.51
2018-03-04T07:26:18.494Z,89.8
2018-03-04T07:27:18.495Z,90.55
2018-03-04T07:28:18.510Z,90.38
2018-03-04T07:29:18.530Z,89.99
2018-03-04T07:30:18.543Z,89.75
2018-03-04T07:31:18.524Z,89.47
2018-03-04T07:32:18.519Z,89.94
2018-03-04T07:33:18.760Z,89.98
2018-03-04T07:34:18.522Z,89.76
2018-03-04T07:35:18.530Z,89.84
2018-03-04T07:36:18.517Z,90.43
2018-03-04T07:37:18.519Z,89.83
2018-03-04T07:38:18.535Z,90.07
2018-03-04T07:39:18.732Z,90.15
2018-03-04T07:40:19.550Z,90.51
2018-03-04T07:41:18.548Z,90.23
2018-03-04T07:42:18.546Z,90.61
2018-03-04T07:43:18.557Z,90.5
2018-03-04T07:44:18.573Z,90.35
2018-03-04T07:46:24.840Z,89.44
2018-03-04T07:47:18.685Z,89.39
2018-03-04T07:48:18.544Z,89.45
2018-03-04T07:49:18.606Z,89.26
2018-03-04T07:50:18.563Z,89.82
2018-03-04T07:51:18.569Z,89.54
2018-03-04T07:52:18.574Z,89.26
2018-03-04T07:53:18.584Z,89.22
2018-03-04T07:54:18.577Z,88.74
2018-03-04T07:55:18.578Z,88.76
2018-03-04T07:56:18.586Z,88.83
2018-03-04T07:57:18.577Z,89.25
2018-03-04T07:58:18.587Z,88.93
2018-03-04T07:59:18.593Z,88.87
2018-03-04T08:00:18.588Z,88.45
2018-03-04T08:01:18.622Z,88.52
2018-03-04T08:02:18.654Z,88.41
2018-03-04T08:03:18.640Z,87.95
2018-03-04T08:04:18.657Z,88.21
2018-03-04T08:05:18.624Z,87.99
2018-03-04T08:06:18.631Z,87.88
2018-03-04T08:07:18.630Z,87.52
2018-03-04T08:08:18.618Z,87.38
2018-03-04T08:09:18.625Z,88.23
2018-03-04T08:10:18.660Z,87.94
2018-03-04T08:11:18.671Z,88.02
2018-03-04T08:12:18.617Z,87.23
2018-03-04T08:13:18.653Z,87.72
2018-03-04T08:14:18.801Z,87.73
2018-03-04T08:15:18.748Z,87.17
2018-03-04T08:16:18.675Z,87.31
2018-03-04T08:17:18.661Z,86.98
2018-03-04T08:18:18.684Z,86.56
2018-03-04T08:19:18.635Z,87.24
2018-03-04T08:20:18.645Z,86.56
2018-03-04T08:21:18.662Z,86.82
2018-03-04T08:22:18.645Z,86.7
2018-03-04T08:23:18.662Z,86.68
2018-03-04T08:24:19.767Z,86.44
2018-03-04T08:25:18.670Z,86.69
2018-03-04T08:26:18.669Z,86.48
2018-03-04T08:27:18.679Z,86.46
2018-03-04T08:28:18.849Z,86.39
2018-03-04T08:29:18.692Z,86.42
2018-03-04T08:30:18.671Z,86.17
2018-03-04T08:31:18.685Z,86.12
2018-03-04T08:32:18.692Z,85.62
2018-03-04T08:33:18.687Z,86.02
2018-03-04T08:34:18.677Z,85.31
2018-03-04T08:35:18.715Z,85.55
2018-03-04T08:36:18.691Z,85.64
2018-03-04T08:37:18.686Z,85.53
2018-03-04T08:38:18.696Z,85.39
2018-03-04T08:39:18.699Z,85.58
2018-03-04T08:40:18.706Z,85.14
2018-03-04T08:41:18.717Z,84.81
2018-03-04T08:42:18.705Z,85.02
2018-03-04T08:43:18.707Z,84.42
2018-03-04T08:44:19.124Z,84.12
2018-03-04T08:45:18.715Z,84.12
2018-03-04T08:46:18.705Z,84.32
2018-03-04T08:47:18.708Z,84.14
2018-03-04T08:48:18.728Z,84.16
2018-03-04T08:49:18.745Z,84.26
2018-03-04T08:50:18.752Z,84.06
2018-03-04T08:51:18.748Z,84.05
2018-03-04T08:52:18.731Z,84.34
2018-03-04T08:53:18.739Z,84.2
2018-03-04T08:54:18.753Z,83.99
2018-03-04T08:55:18.735Z,83.75
2018-03-04T08:56:18.752Z,84.12
2018-03-04T08:57:18.733Z,83.73
2018-03-04T08:58:18.740Z,83.66
2018-03-04T08:59:18.762Z,84.55
2018-03-04T09:00:18.739Z,84.2
2018-03-04T09:01:18.757Z,84.32
2018-03-04T09:02:18.885Z,83.64
2018-03-04T09:03:18.768Z,84.11
2018-03-04T09:04:18.763Z,84.13
2018-03-04T09:05:18.773Z,83.38
2018-03-04T09:06:18.852Z,83.66
2018-03-04T09:07:18.760Z,83.71
2018-03-04T09:08:19.594Z,83.35
2018-03-04T09:09:19.013Z,84
2018-03-04T09:10:18.754Z,83.37
2018-03-04T09:11:18.762Z,83.87
2018-03-04T09:14:18.892Z,83.56
2018-03-04T09:15:18.774Z,83.67
2018-03-04T09:16:18.775Z,83.04
2018-03-04T09:17:18.795Z,82.43
2018-03-04T09:18:18.860Z,82.55
2018-03-04T09:19:18.798Z,83.01
2018-03-04T09:20:18.803Z,82.57
2018-03-04T09:21:18.790Z,82.69
2018-03-04T09:22:18.803Z,83.15
2018-03-04T09:23:18.860Z,82.99
2018-03-04T09:24:18.834Z,82.55
2018-03-04T09:25:18.875Z,82.69
2018-03-04T09:26:18.818Z,82.71
2018-03-04T09:27:18.823Z,83.2
2018-03-04T09:28:18.832Z,82.55
2018-03-04T09:29:18.817Z,82.47
2018-03-04T09:30:18.822Z,82.66
2018-03-04T09:31:18.882Z,82.17
2018-03-04T09:32:18.852Z,82.55
2018-03-04T09:33:18.874Z,82.6
2018-03-04T09:34:18.863Z,81.84
2018-03-04T09:35:18.880Z,82.07
2018-03-04T09:36:18.871Z,82.17
2018-03-04T09:37:18.853Z,81.95
2018-03-04T09:38:18.859Z,82.14
2018-03-04T09:39:18.860Z,81.77
2018-03-04T09:40:18.885Z,82.15
2018-03-04T09:41:18.927Z,81.62
2018-03-04T09:42:18.888Z,81.45
2018-03-04T09:43:18.889Z,81.42
2018-03-04T09:44:18.878Z,81.52
2018-03-04T09:45:18.905Z,81.46
2018-03-04T09:46:18.889Z,81.23
2018-03-04T09:47:18.916Z,80.79
2018-03-04T09:48:18.921Z,81.36
2018-03-04T09:49:18.893Z,81.2
2018-03-04T09:50:18.919Z,80.36
2018-03-04T09:51:18.914Z,80.67
2018-03-04T09:52:18.914Z,80.58
2018-03-04T09:53:18.927Z,80.33
2018-03-04T09:54:18.933Z,80.88
2018-03-04T09:55:18.988Z,80.94
2018-03-04T09:56:18.918Z,80.5
2018-03-04T09:57:18.918Z,80.64
2018-03-04T09:58:18.954Z,80.75
2018-03-04T09:59:19.036Z,80.03
2018-03-04T10:00:18.947Z,79.89
2018-03-04T10:01:18.943Z,79.94
2018-03-04T10:02:18.933Z,80.08
2018-03-04T10:03:18.957Z,80.08
2018-03-04T10:04:18.956Z,80.4
2018-03-04T10:05:18.944Z,79.68
2018-03-04T10:06:19.045Z,79.88
2018-03-04T10:07:19.006Z,79.65
2018-03-04T10:08:18.975Z,79.48
2018-03-04T10:09:18.945Z,79.05
2018-03-04T10:10:18.977Z,79.75
2018-03-04T10:11:18.963Z,79.57
2018-03-04T10:12:18.971Z,79.12
2018-03-04T10:13:18.982Z,79.27
2018-03-04T10:14:18.961Z,78.86
2018-03-04T10:15:18.994Z,79.12
2018-03-04T10:16:18.971Z,79.13
2018-03-04T10:17:18.974Z,79.53
2018-03-04T10:18:18.988Z,79.34
2018-03-04T10:19:18.999Z,79.19
2018-03-04T10:20:18.984Z,79.1
2018-03-04T10:21:18.999Z,79.19
2018-03-04T10:22:18.996Z,79.28
2018-03-04T10:23:19.014Z,79.55
2018-03-04T10:24:19.011Z,79.4
2018-03-04T10:25:19.078Z,79.67
2018-03-04T10:26:19.028Z,79.02
2018-03-04T10:27:19.021Z,78.69
2018-03-04T10:28:19.030Z,78.31
2018-03-04T10:29:20.136Z,78.04
2018-03-04T10:30:19.038Z,78.35
2018-03-04T10:31:19.053Z,78.03
2018-03-04T10:32:19.044Z,78.38
2018-03-04T10:33:19.065Z,77.79
2018-03-04T10:34:19.535Z,78.23
2018-03-04T10:35:21.658Z,78.58
2018-03-04T10:36:19.394Z,78.46
2018-03-04T10:37:19.061Z,78.16
2018-03-04T10:38:19.215Z,77.79
2018-03-04T10:39:19.078Z,77.3
2018-03-04T10:40:19.146Z,77.31
2018-03-04T10:41:19.067Z,77.53
2018-03-04T10:42:19.076Z,77.24
2018-03-04T10:43:19.150Z,77.27
2018-03-04T10:44:19.101Z,77.2
2018-03-04T10:45:19.607Z,77.08
2018-03-04T10:46:19.306Z,77.27
2018-03-04T10:47:19.087Z,76.83
2018-03-04T10:48:19.115Z,76.69
2018-03-04T10:49:19.099Z,76.11
2018-03-04T10:50:19.381Z,76.01
2018-03-04T10:51:19.096Z,75.93
2018-03-04T10:52:19.108Z,75.43
2018-03-04T10:53:19.102Z,75.71
2018-03-04T10:54:19.124Z,75.8
2018-03-04T10:55:19.156Z,75.76
2018-03-04T10:56:19.123Z,74.76
2018-03-04T10:57:19.153Z,75.3
2018-03-04T10:58:19.137Z,74.73
2018-03-04T10:59:19.134Z,74.76
2018-03-04T11:00:19.702Z,73.97
2018-03-04T11:01:19.149Z,73.82
2018-03-04T11:02:19.453Z,73.47
2018-03-04T11:03:19.148Z,73.9
2018-03-04T11:04:19.177Z,73.62
2018-03-04T11:05:19.160Z,73.23
2018-03-04T11:06:19.169Z,73.77
2018-03-04T11:07:19.225Z,73.42
2018-03-04T11:08:19.195Z,72.93
2018-03-04T11:09:19.161Z,72.45
2018-03-04T11:10:19.167Z,72.55
2018-03-04T11:11:19.164Z,71.95
2018-03-04T11:12:19.191Z,71.09
2018-03-04T11:13:19.176Z,71.47
2018-03-04T11:14:19.182Z,71.43
2018-03-04T11:15:19.517Z,70.7
2018-03-04T11:16:19.511Z,70.59
2018-03-04T11:17:19.192Z,70.7
2018-03-04T11:18:19.210Z,70.83
2018-03-04T11:19:19.189Z,70.27
2018-03-04T11:20:19.211Z,70.05
2018-03-04T11:21:19.284Z,71.35
2018-03-04T11:22:19.211Z,70.75
2018-03-04T11:23:19.201Z,69.45
2018-03-04T11:24:19.223Z,69.64
2018-03-04T11:25:19.232Z,70.63
2018-03-04T11:26:19.216Z,69.43
2018-03-04T11:27:19.228Z,69.27
2018-03-04T11:28:19.218Z,70.26
2018-03-04T11:29:19.224Z,69.02
2018-03-04T11:30:19.214Z,69.4
2018-03-04T11:31:19.234Z,68.88
2018-03-04T11:32:19.328Z,69.05
2018-03-04T11:33:19.230Z,68.62
2018-03-04T11:34:19.257Z,68.32
2018-03-04T11:35:19.253Z,67.13
2018-03-04T11:36:19.246Z,67.58
2018-03-04T11:37:19.248Z,66.86
2018-03-04T11:38:19.254Z,67.22
2018-03-04T11:39:19.482Z,67.19
2018-03-04T11:40:19.877Z,67.22
2018-03-04T11:41:19.257Z,67.08
2018-03-04T11:42:19.400Z,67.01
2018-03-04T11:43:19.266Z,67.17
2018-03-04T11:44:19.264Z,67.29
2018-03-04T11:45:19.302Z,67.3
2018-03-04T11:46:19.334Z,67.25
2018-03-04T11:47:19.377Z,66.23
2018-03-04T11:48:19.321Z,65.78
2018-03-04T11:49:19.318Z,65.09
2018-03-04T11:50:19.301Z,65.36
2018-03-04T11:51:19.335Z,65.51
2018-03-04T11:52:19.312Z,65.3
2018-03-04T11:53:19.311Z,65.03
2018-03-04T11:54:19.309Z,65.48
2018-03-04T11:55:19.369Z,65.51
2018-03-04T11:56:19.373Z,64.45
2018-03-04T11:57:19.389Z,64.98
2018-03-04T11:58:19.384Z,63.88
2018-03-04T11:59:19.319Z,63.14
2018-03-04T12:00:19.413Z,62.86
2018-03-04T12:01:19.316Z,62.72
2018-03-04T12:02:19.367Z,63.44
2018-03-04T12:03:19.370Z,63.74
2018-03-04T12:04:19.329Z,61.71
2018-03-04T12:05:19.345Z,61.58
2018-03-04T12:06:19.369Z,61.79
2018-03-04T12:07:19.414Z,61.96
2018-03-04T12:08:19.352Z,62.17
2018-03-04T12:09:19.345Z,62.12
2018-03-04T12:10:19.345Z,61.87
2018-03-04T12:11:19.352Z,61.69
2018-03-04T12:12:19.367Z,60.62
2018-03-04T12:13:19.398Z,60.89
2018-03-04T12:14:19.362Z,60.99
2018-03-04T12:15:19.447Z,60.83
2018-03-04T12:16:19.377Z,59.12
2018-03-04T12:17:19.376Z,60.14
2018-03-04T12:18:19.396Z,60.59
2018-03-04T12:19:19.461Z,59.4
2018-03-04T12:20:19.471Z,59.12
2018-03-04T12:21:19.421Z,58.65
2018-03-04T12:22:19.445Z,59.54
2018-03-04T12:23:19.404Z,57.98
2018-03-04T12:24:19.418Z,58.09
2018-03-04T12:25:19.454Z,57.76
2018-03-04T12:26:19.466Z,57.83
2018-03-04T12:27:19.421Z,56.23
2018-03-04T12:28:19.424Z,56.93
2018-03-04T12:29:19.502Z,57.38
2018-03-04T12:30:19.435Z,56.16
2018-03-04T12:31:19.429Z,56.29
2018-03-04T12:32:19.447Z,57.15
2018-03-04T12:33:19.649Z,57.12
2018-03-04T12:34:19.551Z,55.81
2018-03-04T12:35:20.381Z,54.92
2018-03-04T12:36:19.463Z,55.3
2018-03-04T12:37:20.364Z,53.56
2018-03-04T12:38:19.452Z,54.6
2018-03-04T12:39:19.455Z,54.89
2018-03-04T12:40:19.471Z,55.13
2018-03-04T12:41:19.455Z,53.36
2018-03-04T12:42:19.485Z,52.86
2018-03-04T12:43:19.483Z,52.17
2018-03-04T12:44:19.462Z,52.27
2018-03-04T12:45:19.582Z,52.84
2018-03-04T12:46:19.669Z,52.67
2018-03-04T12:47:19.466Z,53.73
2018-03-04T12:48:19.472Z,52.74
2018-03-04T12:49:19.484Z,51.63
2018-03-04T12:50:19.489Z,51.35
2018-03-04T12:51:19.493Z,51.83
2018-03-04T12:52:19.532Z,51.51
2018-03-04T12:53:19.550Z,50.83
2018-03-04T12:54:19.611Z,51.31
2018-03-04T12:55:20.221Z,52.15
2018-03-04T12:56:20.349Z,51.37
2018-03-04T12:57:19.744Z,51.61
2018-03-04T12:58:20.314Z,52.4
2018-03-04T12:59:19.527Z,53.09
2018-03-04T13:00:19.536Z,50.41
2018-03-04T13:01:19.768Z,50.18
2018-03-04T13:02:19.533Z,51.18
2018-03-04T13:03:19.560Z,48.94
2018-03-04T13:04:19.552Z,49.23
2018-03-04T13:05:19.541Z,50.36
2018-03-04T13:06:19.544Z,50.19
2018-03-04T13:07:19.577Z,49.99
2018-03-04T13:08:19.571Z,49.08
2018-03-04T13:09:19.558Z,49.84